createdAt,value
2022-12-13T00:00:33.743Z,27.40
2022-12-13T00:01:34.695Z,27.60
2022-12-13T00:02:33.759Z,27.90
2022-12-13T00:03:33.733Z,28.70
2022-12-13T00:04:33.676Z,28.00
2022-12-13T00:05:33.679Z,27.90
2022-12-13T00:06:33.684Z,28.20
2022-12-13T00:07:33.664Z,27.50
2022-12-13T00:08:33.659Z,27.50
2022-12-13T00:09:33.642Z,28.60
2022-12-13T00:10:33.634Z,27.70
2022-12-13T00:11:33.648Z,28.40
2022-12-13T00:12:33.624Z,27.50
2022-12-13T00:13:33.625Z,27.80
2022-12-13T00:14:33.611Z,28.20
2022-12-13T00:15:33.597Z,28.20
2022-12-13T00:16:33.637Z,27.50
2022-12-13T00:17:33.591Z,27.30
2022-12-13T00:18:33.587Z,28.00
2022-12-13T00:19:33.567Z,28.20
2022-12-13T00:20:33.563Z,27.50
2022-12-13T00:21:33.587Z,28.10
2022-12-13T00:22:33.550Z,27.30
2022-12-13T00:23:33.539Z,26.90
2022-12-13T00:24:34.536Z,27.70
2022-12-13T00:25:33.519Z,29.00
2022-12-13T00:26:33.548Z,27.30
2022-12-13T00:27:33.507Z,28.10
2022-12-13T00:28:33.498Z,28.10
2022-12-13T00:29:33.495Z,28.40
2022-12-13T00:30:33.516Z,27.90
2022-12-13T00:32:35.468Z,28.90
2022-12-13T00:33:33.469Z,28.20
2022-12-13T00:34:33.454Z,28.40
2022-12-13T00:35:33.456Z,28.40
2022-12-13T00:36:33.475Z,28.70
2022-12-13T00:37:33.435Z,27.60
2022-12-13T00:38:33.436Z,28.70
2022-12-13T00:39:33.425Z,27.30
2022-12-13T00:40:33.424Z,28.30
2022-12-13T00:41:33.436Z,27.60
2022-12-13T00:42:33.404Z,28.40
2022-12-13T00:43:33.394Z,27.60
2022-12-13T00:44:33.399Z,27.20
2022-12-13T00:45:33.381Z,27.60
2022-12-13T00:46:33.453Z,27.90
2022-12-13T00:47:33.362Z,28.40
2022-12-13T00:48:33.359Z,27.30
2022-12-13T00:49:33.354Z,28.10
2022-12-13T00:51:06.215Z,28.00
2022-12-13T00:51:33.368Z,24.40
2022-12-13T00:52:33.334Z,21.20
2022-12-13T00:53:33.326Z,20.30
2022-12-13T00:54:33.318Z,20.80
2022-12-13T00:55:33.307Z,19.50
2022-12-13T00:56:33.306Z,19.00
2022-12-13T00:57:33.317Z,18.30
2022-12-13T00:58:33.285Z,17.90
2022-12-13T00:59:33.279Z,18.20
2022-12-13T01:00:33.275Z,19.10
2022-12-13T01:01:33.317Z,19.80
2022-12-13T01:02:33.306Z,19.30
2022-12-13T01:03:33.276Z,18.10
2022-12-13T01:04:33.243Z,18.10
2022-12-13T01:06:13.272Z,18.80
2022-12-13T01:06:35.233Z,17.80
2022-12-13T01:07:33.253Z,18.20
2022-12-13T01:08:33.220Z,18.50
2022-12-13T01:09:33.217Z,18.90
2022-12-13T01:10:33.206Z,17.90
2022-12-13T01:11:33.195Z,18.10
2022-12-13T01:12:33.222Z,17.80
2022-12-13T01:13:33.185Z,19.50
2022-12-13T01:14:33.189Z,18.20
2022-12-13T01:15:33.165Z,18.40
2022-12-13T01:16:33.268Z,17.20
2022-12-13T01:17:33.177Z,17.80
2022-12-13T01:18:33.147Z,18.30
2022-12-13T01:19:33.139Z,18.30
2022-12-13T01:20:33.132Z,17.50
2022-12-13T01:21:33.125Z,20.70
2022-12-13T01:22:33.158Z,24.00
2022-12-13T01:23:33.137Z,23.00
2022-12-13T01:24:33.106Z,22.60
2022-12-13T01:25:33.098Z,23.80
2022-12-13T01:26:33.090Z,24.40
2022-12-13T01:27:33.120Z,24.10
2022-12-13T01:28:33.082Z,24.00
2022-12-13T01:29:33.067Z,24.10
2022-12-13T01:30:33.113Z,25.00
2022-12-13T01:31:33.052Z,24.40
2022-12-13T01:32:33.089Z,24.10
2022-12-13T01:33:33.040Z,23.20
2022-12-13T01:34:33.024Z,21.00
2022-12-13T01:35:33.016Z,21.00
2022-12-13T01:36:33.016Z,21.30
2022-12-13T01:37:37.326Z,20.00
2022-12-13T01:38:37.776Z,19.90
2022-12-13T01:39:38.162Z,19.40
2022-12-13T01:40:32.987Z,18.40
2022-12-13T01:41:33.980Z,18.20
2022-12-13T01:42:32.995Z,18.20
2022-12-13T01:43:32.966Z,19.00
2022-12-13T01:44:32.960Z,18.00
2022-12-13T01:45:33.080Z,18.50
2022-12-13T01:46:33.083Z,19.00
2022-12-13T01:47:32.966Z,18.10
2022-12-13T01:48:32.923Z,17.90
2022-12-13T01:49:32.930Z,19.10
2022-12-13T01:50:32.909Z,18.60
2022-12-13T01:51:32.903Z,19.40
2022-12-13T01:52:32.924Z,17.90
2022-12-13T01:53:32.894Z,17.90
2022-12-13T01:54:33.405Z,17.40
2022-12-13T01:55:32.872Z,17.50
2022-12-13T01:56:32.868Z,18.10
2022-12-13T01:57:32.890Z,18.20
2022-12-13T01:58:32.857Z,17.40
2022-12-13T01:59:32.851Z,17.10
2022-12-13T02:00:32.830Z,18.50
2022-12-13T02:01:32.889Z,17.80
2022-12-13T02:02:32.855Z,17.80
2022-12-13T02:03:32.819Z,17.70
2022-12-13T02:04:32.848Z,18.20
2022-12-13T02:05:32.870Z,18.10
2022-12-13T02:06:32.805Z,18.00
2022-12-13T02:07:32.817Z,16.90
2022-12-13T02:08:36.112Z,17.00
2022-12-13T02:09:32.784Z,17.80
2022-12-13T02:10:32.764Z,16.00
2022-12-13T02:11:32.753Z,17.10
2022-12-13T02:12:32.751Z,17.00
2022-12-13T02:13:32.767Z,17.00
2022-12-13T02:14:32.736Z,16.10
2022-12-13T02:15:32.774Z,16.70
2022-12-13T02:16:32.720Z,17.00
2022-12-13T02:17:32.719Z,16.60
2022-12-13T02:18:32.739Z,15.80
2022-12-13T02:19:32.731Z,15.00
2022-12-13T02:20:32.694Z,16.50
2022-12-13T02:21:32.678Z,15.90
2022-12-13T02:22:32.670Z,14.80
2022-12-13T02:23:32.691Z,15.30
2022-12-13T02:24:32.665Z,15.10
2022-12-13T02:25:32.649Z,15.80
2022-12-13T02:26:32.669Z,14.90
2022-12-13T02:27:32.678Z,15.30
2022-12-13T02:28:32.631Z,15.50
2022-12-13T02:29:32.622Z,15.40
2022-12-13T02:30:32.618Z,16.40
2022-12-13T02:31:32.785Z,16.30
2022-12-13T02:32:32.607Z,16.10
2022-12-13T02:33:32.599Z,16.70
2022-12-13T02:34:34.080Z,15.90
2022-12-13T02:35:32.589Z,16.10
2022-12-13T02:36:36.219Z,16.10
2022-12-13T02:37:32.570Z,14.20
2022-12-13T02:38:32.562Z,15.90
2022-12-13T02:39:32.552Z,15.90
2022-12-13T02:40:32.544Z,15.60
2022-12-13T02:41:32.563Z,16.60
2022-12-13T02:42:32.531Z,15.70
2022-12-13T02:43:33.625Z,16.70
2022-12-13T02:44:32.522Z,16.90
2022-12-13T02:45:32.514Z,16.50
2022-12-13T02:46:32.556Z,16.30
2022-12-13T02:47:32.503Z,15.70
2022-12-13T02:48:32.485Z,16.10
2022-12-13T02:49:32.475Z,16.80
2022-12-13T02:50:32.473Z,15.80
2022-12-13T02:51:32.491Z,15.50
2022-12-13T02:52:32.452Z,15.30
2022-12-13T02:53:33.671Z,15.80
2022-12-13T02:54:32.447Z,15.80
2022-12-13T02:55:32.443Z,16.30
2022-12-13T02:56:32.476Z,15.30
2022-12-13T02:57:32.414Z,14.90
2022-12-13T02:58:32.411Z,15.70
2022-12-13T02:59:32.398Z,16.10
2022-12-13T03:00:32.418Z,15.50
2022-12-13T03:01:32.492Z,14.80
2022-12-13T03:02:33.521Z,14.80
2022-12-13T03:03:32.466Z,15.70
2022-12-13T03:04:32.372Z,15.30
2022-12-13T03:05:32.366Z,15.30
2022-12-13T03:06:33.916Z,15.70
2022-12-13T03:07:32.350Z,15.30
2022-12-13T03:08:32.410Z,14.90
2022-12-13T03:09:32.345Z,15.70
2022-12-13T03:10:32.329Z,15.20
2022-12-13T03:11:32.321Z,14.40
2022-12-13T03:12:32.349Z,14.30
2022-12-13T03:13:32.307Z,14.20
2022-12-13T03:14:32.301Z,15.20
2022-12-13T03:15:32.296Z,15.40
2022-12-13T03:16:32.355Z,15.60
2022-12-13T03:17:32.332Z,15.50
2022-12-13T03:18:32.276Z,14.70
2022-12-13T03:19:32.266Z,14.40
2022-12-13T03:20:32.277Z,14.80
2022-12-13T03:21:32.253Z,14.60
2022-12-13T03:22:32.270Z,13.90
2022-12-13T03:23:32.238Z,15.40
2022-12-13T03:24:32.228Z,15.20
2022-12-13T03:25:32.989Z,14.90
2022-12-13T03:26:32.216Z,14.10
2022-12-13T03:27:32.236Z,14.60
2022-12-13T03:28:32.208Z,14.60
2022-12-13T03:29:32.193Z,13.90
2022-12-13T03:30:32.184Z,15.00
2022-12-13T03:31:32.217Z,14.90
2022-12-13T03:32:32.201Z,14.00
2022-12-13T03:33:32.165Z,14.30
2022-12-13T03:34:43.564Z,14.00
2022-12-13T03:35:34.198Z,14.10
2022-12-13T03:36:32.144Z,14.20
2022-12-13T03:37:32.173Z,13.40
2022-12-13T03:38:32.140Z,14.00
2022-12-13T03:39:32.124Z,13.60
2022-12-13T03:40:32.118Z,13.20
2022-12-13T03:41:32.120Z,14.10
2022-12-13T03:42:32.137Z,13.40
2022-12-13T03:43:32.104Z,13.10
2022-12-13T03:44:32.091Z,14.10
2022-12-13T03:45:32.100Z,14.80
2022-12-13T03:46:32.113Z,14.40
2022-12-13T03:47:32.110Z,13.80
2022-12-13T03:48:32.086Z,14.00
2022-12-13T03:49:35.233Z,14.00
2022-12-13T03:50:32.054Z,14.10
2022-12-13T03:51:32.049Z,13.80
2022-12-13T03:52:32.080Z,15.40
2022-12-13T03:53:33.374Z,24.30
2022-12-13T03:54:32.021Z,25.40
2022-12-13T03:55:32.017Z,25.70
2022-12-13T03:56:32.014Z,26.20
2022-12-13T03:57:32.006Z,18.20
2022-12-13T03:58:36.077Z,23.80
2022-12-13T03:59:32.982Z,24.80
2022-12-13T04:00:31.985Z,23.80
2022-12-13T04:01:32.019Z,24.20
2022-12-13T04:02:31.971Z,24.60
2022-12-13T04:03:31.978Z,24.20
2022-12-13T04:04:31.962Z,23.90
2022-12-13T04:05:31.947Z,23.80
2022-12-13T04:06:33.276Z,23.60
2022-12-13T04:07:34.436Z,23.30
2022-12-13T04:08:32.041Z,23.10
2022-12-13T04:09:31.912Z,23.00
2022-12-13T04:10:31.910Z,23.80
2022-12-13T04:11:31.903Z,23.50
2022-12-13T04:12:31.898Z,23.60
2022-12-13T04:13:31.928Z,24.00
2022-12-13T04:14:31.879Z,23.30
2022-12-13T04:15:31.867Z,23.40
2022-12-13T04:16:31.876Z,23.50
2022-12-13T04:17:31.858Z,23.20
2022-12-13T04:18:31.876Z,23.70
2022-12-13T04:19:31.851Z,23.10
2022-12-13T04:20:31.839Z,22.70
2022-12-13T04:21:31.839Z,23.30
2022-12-13T04:22:31.831Z,22.80
2022-12-13T04:23:31.841Z,22.90
2022-12-13T04:24:32.402Z,22.80
2022-12-13T04:25:31.893Z,21.20
2022-12-13T04:26:31.794Z,21.70
2022-12-13T04:27:31.785Z,21.70
2022-12-13T04:28:31.817Z,22.00
2022-12-13T04:29:33.686Z,21.10
2022-12-13T04:30:31.763Z,21.50
2022-12-13T04:31:31.818Z,21.80
2022-12-13T04:32:32.734Z,20.90
2022-12-13T04:33:31.765Z,20.70
2022-12-13T04:34:36.928Z,21.20
2022-12-13T04:35:33.723Z,22.40
2022-12-13T04:36:32.838Z,21.10
2022-12-13T04:37:31.711Z,20.90
2022-12-13T04:38:31.757Z,22.00
2022-12-13T04:39:34.451Z,21.40
2022-12-13T04:40:31.696Z,22.30
2022-12-13T04:41:34.556Z,22.10
2022-12-13T04:42:31.682Z,21.90
2022-12-13T04:43:31.702Z,22.40
2022-12-13T04:44:36.455Z,22.50
2022-12-13T04:45:33.676Z,22.20
2022-12-13T04:46:31.658Z,22.30
2022-12-13T04:47:31.645Z,22.00
2022-12-13T04:48:31.837Z,21.80
2022-12-13T04:49:32.633Z,23.30
2022-12-13T04:50:31.615Z,23.70
2022-12-13T04:51:31.612Z,23.70
2022-12-13T04:52:31.605Z,25.20
2022-12-13T04:53:31.628Z,23.80
2022-12-13T04:54:35.725Z,23.10
2022-12-13T04:55:32.577Z,24.00
2022-12-13T04:56:32.579Z,23.40
2022-12-13T04:57:31.578Z,24.30
2022-12-13T04:58:31.594Z,24.00
2022-12-13T04:59:31.560Z,23.90
2022-12-13T05:00:31.554Z,23.60
2022-12-13T05:01:31.658Z,22.80
2022-12-13T05:02:31.575Z,23.60
2022-12-13T05:03:31.570Z,23.10
2022-12-13T05:04:33.192Z,23.70
2022-12-13T05:05:32.516Z,23.30
2022-12-13T05:06:31.522Z,22.90
2022-12-13T05:07:31.501Z,22.80
2022-12-13T05:08:31.545Z,22.90
2022-12-13T05:09:31.496Z,23.00
2022-12-13T05:10:32.245Z,21.90
2022-12-13T05:11:35.605Z,22.70
2022-12-13T05:12:31.465Z,23.00
2022-12-13T05:13:31.458Z,23.30
2022-12-13T05:14:31.489Z,22.80
2022-12-13T05:15:31.452Z,23.10
2022-12-13T05:16:31.498Z,22.20
2022-12-13T05:17:31.432Z,23.00
2022-12-13T05:18:31.426Z,22.80
2022-12-13T05:19:31.895Z,22.40
2022-12-13T05:20:31.407Z,23.00
2022-12-13T05:21:31.403Z,23.30
2022-12-13T05:22:31.403Z,23.40
2022-12-13T05:23:31.397Z,23.30
2022-12-13T05:24:31.415Z,23.30
2022-12-13T05:25:31.382Z,23.70
2022-12-13T05:26:31.377Z,24.30
2022-12-13T05:27:31.356Z,23.50
2022-12-13T05:28:31.352Z,24.10
2022-12-13T05:29:31.378Z,22.30
2022-12-13T05:30:31.344Z,21.90
2022-12-13T05:31:31.396Z,21.60
2022-12-13T05:32:31.327Z,20.70
2022-12-13T05:33:31.304Z,21.30
2022-12-13T05:34:32.332Z,20.30
2022-12-13T05:35:31.302Z,20.70
2022-12-13T05:36:31.294Z,19.90
2022-12-13T05:37:31.287Z,20.80
2022-12-13T05:38:31.298Z,21.20
2022-12-13T05:39:31.299Z,20.50
2022-12-13T05:40:31.263Z,21.00
2022-12-13T05:41:31.256Z,20.80
2022-12-13T05:42:31.250Z,20.50
2022-12-13T05:43:43.236Z,21.40
2022-12-13T05:44:32.261Z,21.00
2022-12-13T05:45:32.342Z,20.40
2022-12-13T05:46:31.324Z,20.50
2022-12-13T05:47:31.217Z,20.40
2022-12-13T05:48:31.214Z,19.80
2022-12-13T05:49:31.226Z,20.00
2022-12-13T05:50:31.201Z,20.50
2022-12-13T05:51:31.186Z,21.00
2022-12-13T05:52:31.398Z,21.50
2022-12-13T05:53:31.407Z,21.10
2022-12-13T05:54:31.191Z,19.60
2022-12-13T05:55:31.151Z,21.00
2022-12-13T05:56:31.149Z,20.80
2022-12-13T05:57:31.143Z,20.50
2022-12-13T05:58:35.904Z,20.20
2022-12-13T05:59:32.153Z,20.20
2022-12-13T06:00:31.257Z,19.60
2022-12-13T06:01:31.119Z,20.30
2022-12-13T06:02:31.202Z,20.50
2022-12-13T06:03:31.215Z,21.20
2022-12-13T06:04:31.121Z,20.90
2022-12-13T06:05:31.101Z,20.60
2022-12-13T06:06:31.089Z,22.40
2022-12-13T06:07:31.076Z,21.60
2022-12-13T06:08:31.131Z,20.90
2022-12-13T06:09:31.089Z,19.40
2022-12-13T06:10:34.705Z,19.90
2022-12-13T06:11:32.334Z,20.40
2022-12-13T06:12:32.740Z,19.50
2022-12-13T06:13:32.415Z,20.10
2022-12-13T06:14:31.062Z,19.70
2022-12-13T06:15:34.645Z,20.40
2022-12-13T06:16:31.086Z,20.10
2022-12-13T06:17:31.002Z,19.90
2022-12-13T06:18:31.004Z,17.60
2022-12-13T06:19:31.010Z,18.80
2022-12-13T06:20:30.989Z,18.40
2022-12-13T06:21:41.145Z,17.40
2022-12-13T06:22:32.969Z,17.40
2022-12-13T06:23:30.965Z,16.90
2022-12-13T06:24:30.989Z,15.90
2022-12-13T06:25:32.124Z,19.50
2022-12-13T06:26:30.944Z,19.30
2022-12-13T06:27:30.934Z,19.90
2022-12-13T06:28:30.922Z,18.60
2022-12-13T06:29:30.953Z,18.60
2022-12-13T06:30:30.971Z,17.30
2022-12-13T06:31:30.919Z,16.80
2022-12-13T06:32:30.900Z,16.80
2022-12-13T06:33:30.883Z,17.00
2022-12-13T06:34:30.904Z,17.00
2022-12-13T06:35:34.125Z,16.00
2022-12-13T06:36:31.863Z,16.70
2022-12-13T06:37:30.869Z,16.10
2022-12-13T06:38:32.240Z,16.20
2022-12-13T06:39:33.183Z,16.10
2022-12-13T06:40:31.834Z,15.90
2022-12-13T06:41:32.336Z,15.50
2022-12-13T06:42:31.826Z,16.50
2022-12-13T06:43:30.816Z,16.10
2022-12-13T06:44:30.850Z,16.30
2022-12-13T06:45:30.796Z,17.30
2022-12-13T06:46:30.856Z,17.80
2022-12-13T06:47:30.788Z,16.90
2022-12-13T06:48:30.777Z,16.60
2022-12-13T06:49:32.323Z,15.00
2022-12-13T06:50:42.782Z,15.50
2022-12-13T06:51:33.003Z,15.70
2022-12-13T06:52:30.755Z,15.00
2022-12-13T06:53:30.748Z,14.70
2022-12-13T06:54:30.769Z,14.70
2022-12-13T06:55:30.733Z,14.80
2022-12-13T06:56:30.718Z,15.00
2022-12-13T06:57:31.015Z,15.50
2022-12-13T06:58:31.066Z,15.60
2022-12-13T06:59:30.698Z,14.80
2022-12-13T07:00:36.785Z,14.10
2022-12-13T07:01:37.754Z,14.90
2022-12-13T07:02:31.828Z,13.90
2022-12-13T07:03:30.719Z,14.10
2022-12-13T07:04:31.229Z,13.90
2022-12-13T07:05:31.693Z,13.90
2022-12-13T07:06:30.653Z,13.40
2022-12-13T07:07:30.645Z,14.40
2022-12-13T07:08:30.662Z,14.30
2022-12-13T07:09:30.638Z,14.30
2022-12-13T07:10:30.702Z,14.30
2022-12-13T07:11:30.643Z,20.70
2022-12-13T07:12:30.610Z,20.10
2022-12-13T07:13:30.607Z,20.30
2022-12-13T07:14:30.606Z,19.60
2022-12-13T07:15:30.671Z,19.00
2022-12-13T07:16:30.583Z,19.40
2022-12-13T07:17:33.170Z,20.20
2022-12-13T07:18:30.575Z,20.20
2022-12-13T07:19:35.223Z,21.30
2022-12-13T07:20:31.584Z,20.80
2022-12-13T07:21:30.556Z,20.60
2022-12-13T07:22:34.468Z,23.50
2022-12-13T07:23:30.546Z,19.90
2022-12-13T07:24:30.535Z,20.40
2022-12-13T07:25:30.595Z,19.80
2022-12-13T07:26:30.537Z,20.30
2022-12-13T07:27:30.516Z,21.20
2022-12-13T07:28:30.508Z,21.30
2022-12-13T07:29:30.733Z,21.20
2022-12-13T07:30:30.520Z,20.10
2022-12-13T07:31:30.524Z,21.90
2022-12-13T07:32:30.472Z,20.30
2022-12-13T07:33:30.574Z,20.60
2022-12-13T07:34:30.644Z,21.10
2022-12-13T07:35:30.505Z,21.30
2022-12-13T07:36:30.446Z,20.70
2022-12-13T07:37:31.183Z,21.60
2022-12-13T07:38:31.432Z,20.60
2022-12-13T07:39:30.422Z,20.70
2022-12-13T07:40:30.450Z,21.20
2022-12-13T07:41:30.472Z,21.30
2022-12-13T07:42:30.405Z,22.20
2022-12-13T07:43:30.409Z,22.90
2022-12-13T07:44:30.388Z,23.10
2022-12-13T07:45:30.409Z,21.50
2022-12-13T07:46:32.420Z,20.40
2022-12-13T07:47:30.373Z,20.10
2022-12-13T07:48:30.358Z,19.70
2022-12-13T07:49:30.360Z,19.60
2022-12-13T07:50:37.404Z,19.20
2022-12-13T07:51:31.336Z,19.80
2022-12-13T07:52:30.333Z,19.20
2022-12-13T07:53:33.380Z,19.40
2022-12-13T07:54:30.321Z,19.30
2022-12-13T07:55:33.466Z,19.10
2022-12-13T07:56:30.300Z,19.10
2022-12-13T07:57:30.312Z,19.20
2022-12-13T07:58:30.285Z,19.40
2022-12-13T07:59:30.278Z,19.30
2022-12-13T08:00:30.297Z,19.50
2022-12-13T08:01:30.349Z,20.30
2022-12-13T08:02:30.256Z,19.80
2022-12-13T08:03:30.419Z,19.50
2022-12-13T08:04:37.516Z,20.30
2022-12-13T08:05:39.050Z,24.50
2022-12-13T08:06:31.223Z,19.20
2022-12-13T08:07:30.219Z,18.80
2022-12-13T08:08:30.828Z,17.80
2022-12-13T08:09:30.206Z,18.50
2022-12-13T08:10:30.238Z,19.50
2022-12-13T08:11:30.212Z,17.70
2022-12-13T08:12:30.187Z,21.60
2022-12-13T08:13:30.174Z,21.50
2022-12-13T08:14:30.181Z,21.60
2022-12-13T08:15:30.191Z,22.40
2022-12-13T08:16:30.473Z,16.80
2022-12-13T08:17:30.152Z,16.40
2022-12-13T08:18:30.152Z,14.90
2022-12-13T08:19:30.147Z,14.60
2022-12-13T08:20:30.165Z,14.90
2022-12-13T08:21:53.221Z,14.10
2022-12-13T08:22:36.039Z,14.70
2022-12-13T08:23:30.105Z,14.20
2022-12-13T08:24:30.124Z,14.00
2022-12-13T08:25:30.125Z,13.50
2022-12-13T08:26:30.095Z,14.10
2022-12-13T08:27:30.106Z,13.90
2022-12-13T08:28:30.071Z,12.90
2022-12-13T08:29:34.423Z,13.00
2022-12-13T08:30:31.115Z,13.50
2022-12-13T08:31:33.988Z,13.60
2022-12-13T08:32:30.063Z,14.10
2022-12-13T08:33:30.029Z,13.80
2022-12-13T08:34:30.037Z,14.30
2022-12-13T08:35:33.995Z,17.10
2022-12-13T08:36:31.018Z,21.50
2022-12-13T08:37:30.009Z,20.60
2022-12-13T08:38:30.000Z,23.40
2022-12-13T08:39:30.000Z,21.70
2022-12-13T08:40:30.027Z,19.90
2022-12-13T08:41:32.254Z,20.50
2022-12-13T08:42:30.969Z,20.00
2022-12-13T08:43:29.965Z,20.60
2022-12-13T08:44:29.966Z,20.10
2022-12-13T08:45:29.959Z,19.90
2022-12-13T08:46:30.006Z,20.20
2022-12-13T08:47:29.938Z,20.80
2022-12-13T08:48:29.934Z,20.60
2022-12-13T08:49:29.928Z,21.00
2022-12-13T08:50:29.917Z,21.20
2022-12-13T08:51:35.567Z,21.30
2022-12-13T08:52:31.955Z,20.80
2022-12-13T08:53:40.597Z,21.00
2022-12-13T08:54:31.988Z,21.00
2022-12-13T08:55:31.745Z,21.40
2022-12-13T08:56:30.896Z,21.00
2022-12-13T08:57:29.860Z,21.20
2022-12-13T08:58:29.880Z,21.70
2022-12-13T08:59:29.850Z,20.40
2022-12-13T09:00:35.892Z,20.90
2022-12-13T09:01:30.867Z,21.00
2022-12-13T09:02:29.881Z,20.90
2022-12-13T09:03:30.823Z,21.80
2022-12-13T09:04:31.626Z,22.00
2022-12-13T09:05:34.351Z,22.90
2022-12-13T09:06:30.835Z,22.60
2022-12-13T09:07:29.795Z,22.90
2022-12-13T09:08:29.830Z,22.40
2022-12-13T09:09:30.771Z,23.20
2022-12-13T09:10:29.768Z,22.90
2022-12-13T09:11:36.533Z,22.90
2022-12-13T09:12:31.269Z,23.20
2022-12-13T09:13:31.282Z,24.30
2022-12-13T09:14:33.526Z,23.50
2022-12-13T09:15:29.808Z,24.90
2022-12-13T09:16:35.689Z,25.00
2022-12-13T09:17:37.054Z,24.60
2022-12-13T09:18:36.111Z,25.30
2022-12-13T09:19:37.122Z,24.70
2022-12-13T09:20:30.834Z,25.50
2022-12-13T09:21:31.939Z,26.90
2022-12-13T09:22:33.932Z,27.90
2022-12-13T09:23:30.272Z,26.40
2022-12-13T09:24:35.732Z,27.40
2022-12-13T09:25:37.448Z,26.20
2022-12-13T09:26:37.625Z,25.80
2022-12-13T09:27:30.665Z,23.80
2022-12-13T09:28:29.642Z,25.40
2022-12-13T09:29:29.633Z,25.70
2022-12-13T09:30:31.380Z,25.20
2022-12-13T09:31:29.726Z,24.90
2022-12-13T09:32:29.630Z,25.50
2022-12-13T09:33:31.026Z,24.70
2022-12-13T09:34:29.689Z,24.00
2022-12-13T09:35:29.609Z,23.80
2022-12-13T09:36:29.618Z,24.20
2022-12-13T09:37:29.588Z,25.80
2022-12-13T09:38:29.588Z,24.40
2022-12-13T09:39:29.595Z,24.70
2022-12-13T09:40:29.562Z,25.00
2022-12-13T09:41:30.605Z,24.40
2022-12-13T09:42:30.758Z,24.90
2022-12-13T09:43:32.568Z,23.30
2022-12-13T09:44:42.444Z,23.80
2022-12-13T09:45:32.030Z,24.40
2022-12-13T09:46:34.135Z,24.00
2022-12-13T09:47:35.247Z,23.70
2022-12-13T09:48:34.797Z,24.20
2022-12-13T09:49:35.113Z,23.60
2022-12-13T09:50:30.506Z,24.30
2022-12-13T09:51:44.775Z,23.90
2022-12-13T09:52:33.496Z,24.80
2022-12-13T09:53:33.615Z,27.50
2022-12-13T09:54:29.497Z,23.80
2022-12-13T09:55:30.250Z,24.70
2022-12-13T09:56:29.450Z,24.20
2022-12-13T09:57:32.177Z,29.30
2022-12-13T09:58:29.439Z,24.80
2022-12-13T09:59:29.436Z,26.20
2022-12-13T10:00:29.427Z,24.90
2022-12-13T10:01:29.487Z,24.90
2022-12-13T10:02:29.487Z,25.00
2022-12-13T10:03:29.394Z,24.90
2022-12-13T10:04:30.403Z,25.10
2022-12-13T10:05:33.836Z,24.70
2022-12-13T10:06:31.377Z,25.00
2022-12-13T10:07:29.399Z,26.40
2022-12-13T10:08:29.372Z,24.60
2022-12-13T10:09:29.353Z,27.00
2022-12-13T10:10:29.353Z,25.10
2022-12-13T10:11:31.717Z,23.40
2022-12-13T10:12:29.368Z,23.70
2022-12-13T10:13:29.336Z,23.90
2022-12-13T10:14:29.314Z,24.40
2022-12-13T10:15:30.315Z,24.90
2022-12-13T10:16:36.299Z,24.10
2022-12-13T10:17:30.328Z,23.20
2022-12-13T10:18:30.291Z,22.60
2022-12-13T10:19:30.199Z,26.50
2022-12-13T10:20:30.295Z,24.40
2022-12-13T10:21:29.272Z,24.90
2022-12-13T10:22:29.296Z,23.30
2022-12-13T10:23:52.361Z,24.60
2022-12-13T10:24:36.341Z,23.70
2022-12-13T10:25:31.290Z,24.60
2022-12-13T10:26:29.270Z,25.60
2022-12-13T10:27:29.260Z,25.60
2022-12-13T10:28:29.219Z,25.20
2022-12-13T10:29:29.216Z,25.20
2022-12-13T10:30:29.577Z,24.90
2022-12-13T10:31:30.271Z,24.50
2022-12-13T10:32:29.234Z,24.70
2022-12-13T10:33:29.198Z,24.80
2022-12-13T10:34:29.181Z,25.00
2022-12-13T10:35:29.170Z,24.60
2022-12-13T10:36:29.169Z,25.60
2022-12-13T10:37:29.185Z,25.40
2022-12-13T10:38:32.026Z,25.40
2022-12-13T10:39:29.139Z,26.20
2022-12-13T10:40:32.131Z,27.00
2022-12-13T10:41:29.149Z,25.40
2022-12-13T10:42:33.864Z,25.30
2022-12-13T10:43:31.107Z,25.20
2022-12-13T10:44:29.118Z,24.90
2022-12-13T10:45:29.119Z,26.00
2022-12-13T10:46:29.107Z,26.10
2022-12-13T10:47:29.122Z,26.70
2022-12-13T10:48:29.130Z,25.50
2022-12-13T10:49:29.072Z,25.40
2022-12-13T10:50:29.120Z,25.20
2022-12-13T10:51:29.058Z,25.30
2022-12-13T10:52:31.497Z,25.60
2022-12-13T10:53:29.060Z,25.90
2022-12-13T10:54:29.054Z,26.90
2022-12-13T10:55:30.033Z,26.80
2022-12-13T10:56:29.026Z,26.40
2022-12-13T10:57:29.073Z,25.30
2022-12-13T10:58:29.029Z,27.10
2022-12-13T10:59:29.000Z,23.90
2022-12-13T11:00:28.992Z,24.40
2022-12-13T11:01:29.031Z,23.90
2022-12-13T11:02:29.072Z,24.20
2022-12-13T11:03:28.997Z,23.10
2022-12-13T11:04:28.966Z,23.70
2022-12-13T11:05:28.957Z,24.70
2022-12-13T11:06:28.941Z,24.40
2022-12-13T11:07:28.948Z,23.80
2022-12-13T11:08:29.208Z,23.90
2022-12-13T11:09:28.922Z,24.90
2022-12-13T11:10:29.024Z,25.50
2022-12-13T11:11:28.909Z,24.70
2022-12-13T11:12:28.895Z,25.10
2022-12-13T11:13:28.919Z,25.00
2022-12-13T11:14:31.705Z,25.10
2022-12-13T11:15:28.878Z,26.80
2022-12-13T11:16:28.915Z,26.10
2022-12-13T11:17:29.871Z,25.30
2022-12-13T11:18:28.886Z,25.60
2022-12-13T11:19:28.915Z,24.80
2022-12-13T11:20:28.846Z,26.20
2022-12-13T11:21:28.837Z,25.30
2022-12-13T11:22:28.825Z,24.70
2022-12-13T11:23:28.847Z,25.80
2022-12-13T11:24:28.822Z,31.90
2022-12-13T11:25:28.810Z,30.90
2022-12-13T11:26:28.797Z,31.10
2022-12-13T11:27:28.827Z,31.60
2022-12-13T11:28:28.833Z,31.20
2022-12-13T11:29:28.783Z,29.10
2022-12-13T11:30:28.772Z,31.30
2022-12-13T11:31:28.793Z,31.40
2022-12-13T11:32:28.759Z,31.20
2022-12-13T11:33:28.774Z,31.30
2022-12-13T11:34:28.741Z,31.30
2022-12-13T11:35:28.736Z,22.10
2022-12-13T11:36:28.744Z,34.70
2022-12-13T11:37:28.727Z,31.10
2022-12-13T11:38:28.778Z,33.60
2022-12-13T11:39:28.710Z,35.50
2022-12-13T11:40:28.689Z,31.10
2022-12-13T11:41:32.218Z,31.80
2022-12-13T11:42:28.679Z,31.70
2022-12-13T11:43:28.698Z,21.90
2022-12-13T11:44:28.669Z,23.90
2022-12-13T11:45:28.671Z,26.60
2022-12-13T11:46:28.693Z,25.80
2022-12-13T11:47:28.654Z,24.50
2022-12-13T11:48:28.979Z,26.00
2022-12-13T11:49:28.650Z,24.50
2022-12-13T11:50:33.808Z,24.30
2022-12-13T11:51:29.624Z,25.80
2022-12-13T11:52:28.617Z,27.50
2022-12-13T11:53:29.020Z,31.50
2022-12-13T11:54:28.609Z,32.10
2022-12-13T11:55:28.612Z,26.90
2022-12-13T11:56:28.587Z,30.40
2022-12-13T11:57:28.581Z,32.90
2022-12-13T11:59:30.846Z,32.30
2022-12-13T12:00:33.547Z,32.50
2022-12-13T12:01:29.557Z,32.50
2022-12-13T12:02:28.668Z,31.80
2022-12-13T12:03:28.590Z,23.30
2022-12-13T12:04:28.568Z,32.30
2022-12-13T12:05:28.530Z,32.30
2022-12-13T12:06:28.535Z,32.20
2022-12-13T12:07:33.230Z,32.30
2022-12-13T12:08:43.625Z,36.80
2022-12-13T12:09:29.523Z,33.90
2022-12-13T12:10:28.492Z,32.90
2022-12-13T12:11:28.488Z,32.30
2022-12-13T12:12:28.485Z,32.10
2022-12-13T12:13:28.491Z,32.20
2022-12-13T12:14:28.514Z,28.10
2022-12-13T12:15:28.459Z,32.60
2022-12-13T12:16:28.496Z,32.40
2022-12-13T12:17:31.272Z,28.60
2022-12-13T12:18:29.680Z,32.50
2022-12-13T12:19:28.450Z,32.00
2022-12-13T12:20:28.458Z,31.30
2022-12-13T12:21:42.761Z,33.00
2022-12-13T12:22:30.414Z,31.70
2022-12-13T12:23:28.404Z,32.80
2022-12-13T12:24:28.422Z,32.80
2022-12-13T12:25:28.388Z,26.70
2022-12-13T12:26:28.380Z,32.30
2022-12-13T12:27:28.362Z,33.30
2022-12-13T12:28:29.440Z,32.70
2022-12-13T12:29:28.383Z,29.60
2022-12-13T12:30:28.352Z,32.00
2022-12-13T12:31:28.434Z,31.80
2022-12-13T12:32:28.338Z,31.70
2022-12-13T12:33:28.333Z,31.10
2022-12-13T12:34:28.347Z,31.50
2022-12-13T12:35:28.317Z,31.70
2022-12-13T12:36:28.305Z,23.20
2022-12-13T12:37:28.300Z,24.70
2022-12-13T12:38:28.763Z,25.40
2022-12-13T12:39:28.312Z,24.80
2022-12-13T12:40:40.130Z,25.80
2022-12-13T12:41:30.269Z,25.70
2022-12-13T12:42:28.270Z,32.00
2022-12-13T12:43:28.753Z,31.20
2022-12-13T12:44:30.548Z,31.40
2022-12-13T12:45:55.222Z,31.70
2022-12-13T12:46:30.280Z,25.60
2022-12-13T12:47:48.018Z,30.80
2022-12-13T12:48:52.082Z,30.60
2022-12-13T12:49:30.277Z,29.50
2022-12-13T12:50:29.207Z,28.50
2022-12-13T12:52:00.834Z,29.70
2022-12-13T12:52:28.208Z,20.50
2022-12-13T12:53:28.189Z,30.10
2022-12-13T12:54:32.247Z,30.40